createdAt,value
2023-01-17T00:02:16.591Z,74.20
2023-01-17T00:05:02.109Z,74.18
2023-01-17T00:07:47.802Z,74.13
2023-01-17T00:10:17.999Z,74.27
2023-01-17T00:12:53.034Z,74.23
2023-01-17T00:15:21.082Z,74.13
2023-01-17T00:17:48.897Z,74.11
2023-01-17T00:20:36.984Z,74.01
2023-01-17T00:23:27.087Z,73.91
2023-01-17T00:26:06.041Z,73.85
2023-01-17T00:28:37.139Z,73.91
2023-01-17T00:31:05.328Z,73.94
2023-01-17T00:33:32.265Z,73.97
2023-01-17T00:36:00.322Z,74.00
2023-01-17T00:38:30.186Z,74.02
2023-01-17T00:41:03.108Z,74.03
2023-01-17T00:43:49.547Z,74.17
2023-01-17T00:46:35.130Z,74.25
2023-01-17T00:49:20.420Z,74.24
2023-01-17T00:52:05.827Z,74.25
2023-01-17T00:54:51.005Z,74.21
2023-01-17T00:57:36.750Z,74.23
2023-01-17T01:00:22.856Z,74.18
2023-01-17T01:03:08.054Z,74.21
2023-01-17T01:05:55.825Z,74.18
2023-01-17T01:08:47.948Z,74.16
2023-01-17T01:11:36.845Z,74.20
2023-01-17T01:14:23.421Z,74.21
2023-01-17T01:17:09.095Z,74.16
2023-01-17T01:19:54.609Z,74.30
2023-01-17T01:22:40.174Z,74.32
2023-01-17T01:25:25.993Z,74.28
2023-01-17T01:28:11.114Z,74.30
2023-01-17T01:30:56.388Z,74.35
2023-01-17T01:33:23.155Z,74.34
2023-01-17T01:35:54.855Z,74.26
2023-01-17T01:38:24.096Z,74.26
2023-01-17T01:40:55.825Z,74.32
2023-01-17T01:43:51.919Z,74.34
2023-01-17T01:46:30.564Z,74.41
2023-01-17T01:49:12.166Z,74.37
2023-01-17T01:51:44.847Z,74.42
2023-01-17T01:54:19.797Z,74.41
2023-01-17T01:56:49.566Z,74.43
2023-01-17T01:59:19.866Z,74.47
2023-01-17T02:01:48.420Z,74.46
2023-01-17T02:04:15.551Z,74.43
2023-01-17T02:06:53.979Z,74.46
2023-01-17T02:09:20.975Z,74.56
2023-01-17T02:11:49.757Z,74.40
2023-01-17T02:14:21.584Z,74.28
2023-01-17T02:17:10.718Z,74.34
2023-01-17T02:19:56.387Z,74.33
2023-01-17T02:23:02.597Z,74.36
2023-01-17T02:25:54.062Z,74.37
2023-01-17T02:28:53.166Z,74.41
2023-01-17T02:31:33.138Z,74.37
2023-01-17T02:34:23.701Z,74.24
2023-01-17T02:37:06.768Z,74.30
2023-01-17T02:39:39.599Z,74.24
2023-01-17T02:42:17.965Z,74.17
2023-01-17T02:44:45.322Z,74.19
2023-01-17T02:47:28.343Z,74.18
2023-01-17T02:50:10.582Z,74.15
2023-01-17T02:53:09.429Z,74.20
2023-01-17T02:56:06.083Z,74.15
2023-01-17T02:58:48.392Z,74.11
2023-01-17T03:01:33.965Z,74.08
2023-01-17T03:04:06.183Z,74.18
2023-01-17T03:06:43.496Z,74.19
2023-01-17T03:09:10.739Z,74.08
2023-01-17T03:11:37.573Z,74.04
2023-01-17T03:14:04.359Z,74.10
2023-01-17T03:16:33.114Z,74.05
2023-01-17T03:19:00.370Z,74.04
2023-01-17T03:21:27.179Z,74.12
2023-01-17T03:23:54.071Z,74.24
2023-01-17T03:26:20.873Z,74.30
2023-01-17T03:28:47.741Z,74.41
2023-01-17T03:31:16.031Z,74.40
2023-01-17T03:33:42.970Z,74.36
2023-01-17T03:36:09.977Z,74.41
2023-01-17T03:38:37.517Z,74.44
2023-01-17T03:41:05.149Z,74.45
2023-01-17T03:43:31.945Z,74.41
2023-01-17T03:46:03.553Z,74.36
2023-01-17T03:48:30.970Z,74.25
2023-01-17T03:50:57.877Z,74.26
2023-01-17T03:53:24.728Z,74.26
2023-01-17T03:55:52.000Z,74.25
2023-01-17T03:58:18.882Z,74.24
2023-01-17T04:00:45.702Z,74.23
2023-01-17T04:03:13.128Z,74.19
2023-01-17T04:05:40.914Z,74.14
2023-01-17T04:08:08.351Z,74.04
2023-01-17T04:10:35.150Z,74.00
2023-01-17T04:13:02.581Z,74.08
2023-01-17T04:15:29.606Z,74.16
2023-01-17T04:17:57.404Z,74.21
2023-01-17T04:20:39.559Z,74.28
2023-01-17T04:23:07.441Z,74.41
2023-01-17T04:25:34.896Z,74.44
2023-01-17T04:28:03.819Z,74.44
2023-01-17T04:30:32.502Z,74.45
2023-01-17T04:33:00.204Z,74.52
2023-01-17T04:35:30.443Z,74.58
2023-01-17T04:37:57.276Z,74.62
2023-01-17T04:40:24.672Z,74.59
2023-01-17T04:42:52.215Z,74.73
2023-01-17T04:45:19.321Z,74.86
2023-01-17T04:47:46.387Z,74.96
2023-01-17T04:50:14.085Z,74.94
2023-01-17T04:52:41.227Z,74.93
2023-01-17T04:55:08.796Z,74.83
2023-01-17T04:57:35.792Z,74.88
2023-01-17T05:00:03.984Z,74.82
2023-01-17T05:02:30.795Z,74.84
2023-01-17T05:04:58.004Z,74.82
2023-01-17T05:07:25.823Z,74.83
2023-01-17T05:09:52.889Z,74.85
2023-01-17T05:12:21.003Z,74.82
2023-01-17T05:14:48.102Z,74.82
2023-01-17T05:17:14.854Z,74.80
2023-01-17T05:19:41.955Z,74.83
2023-01-17T05:22:15.080Z,74.83
2023-01-17T05:24:46.580Z,74.80
2023-01-17T05:27:14.949Z,74.79
2023-01-17T05:29:41.771Z,74.87
2023-01-17T05:32:08.605Z,74.91
2023-01-17T05:34:36.081Z,75.00
2023-01-17T05:37:03.649Z,75.01
2023-01-17T05:39:31.154Z,75.11
2023-01-17T05:41:59.263Z,75.12
2023-01-17T05:44:27.979Z,75.06
2023-01-17T05:46:56.559Z,75.10
2023-01-17T05:49:23.956Z,75.21
2023-01-17T05:51:54.132Z,75.19
2023-01-17T05:54:22.312Z,75.28
2023-01-17T05:59:20.557Z,75.25
2023-01-17T06:01:54.381Z,75.25
2023-01-17T06:04:21.949Z,75.26
2023-01-17T06:06:49.747Z,75.25
2023-01-17T06:09:16.789Z,75.19
2023-01-17T06:11:44.208Z,75.15
2023-01-17T06:14:11.098Z,75.03
2023-01-17T06:16:37.863Z,75.05
2023-01-17T06:19:05.282Z,75.10
2023-01-17T06:21:32.384Z,75.09
2023-01-17T06:23:59.164Z,75.12
2023-01-17T06:26:26.251Z,75.16
2023-01-17T06:28:53.658Z,75.17
2023-01-17T06:31:20.584Z,75.28
2023-01-17T06:33:47.737Z,75.22
2023-01-17T06:36:14.840Z,75.25
2023-01-17T06:38:42.280Z,75.29
2023-01-17T06:41:10.090Z,75.22
2023-01-17T06:43:37.308Z,75.23
2023-01-17T06:46:04.849Z,75.19
2023-01-17T06:48:31.926Z,75.34
2023-01-17T06:50:59.721Z,75.33
2023-01-17T06:53:26.882Z,75.30
2023-01-17T06:55:57.948Z,75.29
2023-01-17T06:58:25.437Z,75.35
2023-01-17T07:00:52.926Z,75.58
2023-01-17T07:03:23.313Z,75.78
2023-01-17T07:05:51.197Z,75.78
2023-01-17T07:08:20.096Z,75.94
2023-01-17T07:10:48.050Z,75.90
2023-01-17T07:13:15.417Z,75.75
2023-01-17T07:15:42.691Z,75.69
2023-01-17T07:18:09.872Z,75.54
2023-01-17T07:20:38.417Z,75.62
2023-01-17T07:23:06.304Z,75.62
2023-01-17T07:25:33.445Z,75.52
2023-01-17T07:28:00.270Z,75.48
2023-01-17T07:30:27.403Z,75.48
2023-01-17T07:32:55.638Z,75.59
2023-01-17T07:35:24.256Z,75.60
2023-01-17T07:37:51.621Z,75.61
2023-01-17T07:40:20.174Z,75.66
2023-01-17T07:42:47.827Z,75.69
2023-01-17T07:45:16.394Z,75.58
2023-01-17T07:47:44.706Z,75.71
2023-01-17T07:50:13.689Z,75.74
2023-01-17T07:52:41.703Z,75.78
2023-01-17T07:55:09.585Z,75.71
2023-01-17T07:57:36.741Z,75.66
2023-01-17T08:00:05.241Z,75.67
2023-01-17T08:02:32.356Z,75.70
2023-01-17T08:04:59.143Z,75.67
2023-01-17T08:07:26.656Z,75.61
2023-01-17T08:09:55.128Z,75.48
2023-01-17T08:12:21.893Z,75.42
2023-01-17T08:14:49.030Z,75.38
2023-01-17T08:17:18.229Z,75.24
2023-01-17T08:19:45.055Z,75.27
2023-01-17T08:22:12.434Z,75.19
2023-01-17T08:24:39.904Z,75.16
2023-01-17T08:27:08.956Z,75.06
2023-01-17T08:29:36.400Z,75.02
2023-01-17T08:32:03.962Z,75.03
2023-01-17T08:34:33.466Z,75.02
2023-01-17T08:37:00.690Z,74.99
2023-01-17T08:39:28.522Z,74.91
2023-01-17T08:41:55.329Z,74.83
2023-01-17T08:44:22.778Z,74.82
2023-01-17T08:46:50.672Z,74.86
2023-01-17T08:49:17.803Z,74.83
2023-01-17T08:51:44.929Z,74.81
2023-01-17T08:54:13.683Z,74.79
2023-01-17T08:56:42.795Z,74.77
2023-01-17T08:59:11.878Z,74.71
2023-01-17T09:01:42.366Z,74.71
2023-01-17T09:04:10.552Z,74.64
2023-01-17T09:06:39.511Z,74.60
2023-01-17T09:09:07.733Z,74.61
2023-01-17T09:11:35.005Z,74.64
2023-01-17T09:14:02.305Z,74.62
2023-01-17T09:16:30.376Z,74.61
2023-01-17T09:18:59.290Z,74.60
2023-01-17T09:21:26.950Z,74.54
2023-01-17T09:23:55.370Z,74.46
2023-01-17T09:26:28.448Z,74.40
2023-01-17T09:28:55.875Z,74.32
2023-01-17T09:31:24.886Z,74.30
2023-01-17T09:33:53.811Z,74.32
2023-01-17T09:36:22.501Z,74.33
2023-01-17T09:38:49.637Z,74.42
2023-01-17T09:41:41.401Z,74.50
2023-01-17T09:44:28.270Z,74.55
2023-01-17T09:47:00.504Z,74.58
2023-01-17T09:49:45.548Z,74.53
2023-01-17T09:52:21.071Z,74.58
2023-01-17T09:54:49.988Z,74.65
2023-01-17T09:57:54.189Z,74.54
2023-01-17T10:00:30.274Z,74.52
2023-01-17T10:03:17.797Z,74.44
2023-01-17T10:06:14.156Z,74.52
2023-01-17T10:08:59.929Z,74.73
2023-01-17T10:11:26.957Z,74.86
2023-01-17T10:14:31.347Z,74.98
2023-01-17T10:17:21.789Z,75.17
2023-01-17T10:20:04.345Z,75.07
2023-01-17T10:22:37.778Z,75.32
2023-01-17T10:25:13.124Z,75.40
2023-01-17T10:28:04.773Z,75.35
2023-01-17T10:30:39.286Z,75.46
2023-01-17T10:33:34.563Z,75.57
2023-01-17T10:36:08.613Z,75.66
2023-01-17T10:38:43.474Z,75.70
2023-01-17T10:41:16.614Z,75.91
2023-01-17T10:43:52.561Z,76.02
2023-01-17T10:46:28.655Z,76.18
2023-01-17T10:48:57.370Z,76.16
2023-01-17T10:51:43.221Z,75.91
2023-01-17T10:54:33.642Z,76.15
2023-01-17T10:57:00.875Z,76.19
2023-01-17T10:59:31.782Z,76.47
2023-01-17T11:02:00.959Z,76.19
2023-01-17T11:04:36.942Z,76.06
2023-01-17T11:07:20.202Z,76.02
2023-01-17T11:09:56.071Z,76.03
2023-01-17T11:12:47.155Z,76.05
2023-01-17T11:15:18.151Z,75.90
2023-01-17T11:17:53.232Z,75.79
2023-01-17T11:20:38.384Z,75.76
2023-01-17T11:23:24.587Z,75.67
2023-01-17T11:26:00.802Z,75.43
2023-01-17T11:28:30.901Z,75.44
2023-01-17T11:31:00.604Z,75.37
2023-01-17T11:33:33.921Z,75.26
2023-01-17T11:36:01.361Z,75.11
2023-01-17T11:38:29.196Z,74.96
2023-01-17T11:41:16.277Z,74.84
2023-01-17T11:43:53.516Z,74.74
2023-01-17T11:46:20.780Z,74.58
2023-01-17T11:49:00.060Z,74.55
2023-01-17T11:51:29.591Z,74.47
2023-01-17T11:54:07.886Z,74.40
2023-01-17T11:56:37.439Z,74.27
2023-01-17T11:59:11.764Z,74.24
2023-01-17T12:02:01.947Z,74.09
2023-01-17T12:04:41.098Z,73.87
2023-01-17T12:07:15.221Z,74.02
2023-01-17T12:09:51.170Z,73.92
2023-01-17T12:13:06.255Z,73.88
2023-01-17T12:15:44.974Z,73.81
2023-01-17T12:18:37.229Z,73.74
2023-01-17T12:21:07.258Z,73.74
2023-01-17T12:23:59.333Z,73.76
2023-01-17T12:26:38.309Z,73.74
2023-01-17T12:29:34.409Z,73.78
2023-01-17T12:32:10.520Z,73.77
2023-01-17T12:35:07.888Z,73.71
2023-01-17T12:37:39.351Z,73.75
2023-01-17T12:40:19.143Z,73.74
2023-01-17T12:43:03.602Z,73.71
2023-01-17T12:45:39.282Z,73.68
2023-01-17T12:48:12.120Z,73.73
2023-01-17T12:50:41.997Z,73.74
2023-01-17T12:53:35.536Z,73.73
2023-01-17T12:56:17.081Z,73.73
2023-01-17T12:58:53.341Z,73.73
2023-01-17T13:01:24.224Z,73.76
2023-01-17T13:04:21.545Z,73.83
2023-01-17T13:07:04.668Z,73.77
2023-01-17T13:09:41.500Z,73.76
2023-01-17T13:12:14.430Z,73.76
2023-01-17T13:14:41.898Z,73.75
2023-01-17T13:17:24.853Z,73.74
2023-01-17T13:19:58.589Z,73.73
2023-01-17T13:22:27.231Z,73.72
2023-01-17T13:25:13.534Z,73.75
2023-01-17T13:28:15.407Z,73.73
2023-01-17T13:30:57.692Z,73.75
2023-01-17T13:33:36.884Z,73.72
2023-01-17T13:36:09.770Z,73.69
2023-01-17T13:39:00.947Z,73.72
2023-01-17T13:41:34.391Z,73.76
2023-01-17T13:44:21.467Z,73.76
2023-01-17T13:47:18.255Z,73.78
2023-01-17T13:49:51.861Z,73.79
2023-01-17T13:52:19.270Z,73.65
2023-01-17T13:54:46.038Z,73.78
2023-01-17T13:57:47.096Z,73.79
2023-01-17T14:00:21.722Z,73.76
2023-01-17T14:02:50.790Z,73.81
2023-01-17T14:05:22.983Z,73.85
2023-01-17T14:07:59.913Z,73.85
2023-01-17T14:10:29.486Z,73.86
2023-01-17T14:12:56.745Z,73.87
2023-01-17T14:15:27.450Z,73.88
2023-01-17T14:18:36.664Z,73.88
2023-01-17T14:21:22.278Z,73.88
2023-01-17T14:23:50.000Z,73.90
2023-01-17T14:26:31.542Z,73.92
2023-01-17T14:29:19.524Z,73.94
2023-01-17T14:31:47.364Z,73.98
2023-01-17T14:34:22.060Z,73.97
2023-01-17T14:36:49.477Z,73.98
2023-01-17T14:39:22.984Z,74.00
2023-01-17T14:41:50.294Z,73.99
2023-01-17T14:44:17.728Z,74.00
2023-01-17T14:46:48.542Z,74.03
2023-01-17T14:49:25.751Z,74.04
2023-01-17T14:52:04.178Z,74.05
2023-01-17T14:54:31.586Z,74.06
2023-01-17T14:57:25.037Z,74.08
2023-01-17T14:59:52.529Z,74.09
2023-01-17T15:02:20.176Z,74.11
2023-01-17T15:04:54.618Z,74.13
2023-01-17T15:07:24.210Z,74.13
2023-01-17T15:09:51.367Z,74.19
2023-01-17T15:12:19.921Z,74.15
2023-01-17T15:14:47.252Z,74.14
2023-01-17T15:17:26.010Z,74.19
2023-01-17T15:20:08.668Z,74.26
2023-01-17T15:22:35.890Z,74.29
2023-01-17T15:25:03.683Z,74.06
2023-01-17T15:27:31.021Z,73.98
2023-01-17T15:30:02.728Z,74.02
2023-01-17T15:32:33.200Z,74.01
2023-01-17T15:35:03.133Z,74.07
2023-01-17T15:37:33.101Z,74.06
2023-01-17T15:40:18.847Z,74.10
2023-01-17T15:43:06.873Z,74.18
2023-01-17T15:45:36.091Z,74.17
2023-01-17T15:48:38.266Z,74.20
2023-01-17T15:51:05.834Z,74.23
2023-01-17T15:53:38.233Z,74.25
2023-01-17T15:56:33.194Z,74.36
2023-01-17T15:59:45.911Z,74.33
2023-01-17T16:02:55.171Z,74.33
2023-01-17T16:05:22.822Z,74.30
2023-01-17T16:08:02.885Z,74.28
2023-01-17T16:10:38.306Z,74.37
2023-01-17T16:13:07.984Z,74.36
2023-01-17T16:15:36.033Z,74.31
2023-01-17T16:18:04.479Z,74.34
2023-01-17T16:20:43.421Z,74.33
2023-01-17T16:23:10.950Z,74.32
2023-01-17T16:25:38.457Z,74.33
2023-01-17T16:28:06.529Z,74.33
2023-01-17T16:30:34.382Z,74.31
2023-01-17T16:33:03.827Z,74.32
2023-01-17T16:35:34.092Z,74.32
2023-01-17T16:38:04.742Z,74.36
2023-01-17T16:40:41.191Z,74.43
2023-01-17T16:43:11.527Z,74.37
2023-01-17T16:45:46.691Z,74.44
2023-01-17T16:48:14.548Z,74.48
2023-01-17T16:50:48.033Z,74.48
2023-01-17T16:53:16.069Z,74.87
2023-01-17T16:55:44.342Z,75.05
2023-01-17T16:58:12.013Z,75.09
2023-01-17T17:00:40.421Z,75.08
2023-01-17T17:03:07.609Z,75.08
2023-01-17T17:05:34.552Z,75.14
2023-01-17T17:08:02.043Z,75.09
2023-01-17T17:10:29.911Z,75.10
2023-01-17T17:12:57.643Z,75.17
2023-01-17T17:15:24.834Z,75.17
2023-01-17T17:17:54.814Z,75.22
2023-01-17T17:20:25.031Z,75.22
2023-01-17T17:22:52.363Z,75.23
2023-01-17T17:25:20.196Z,75.13
2023-01-17T17:28:06.031Z,75.17
2023-01-17T17:30:34.903Z,75.17
2023-01-17T17:33:04.971Z,75.20
2023-01-17T17:35:35.585Z,75.24
2023-01-17T17:38:02.833Z,75.33
2023-01-17T17:40:30.573Z,75.31
2023-01-17T17:42:58.155Z,75.32
2023-01-17T17:45:26.000Z,75.32
2023-01-17T17:47:54.592Z,75.36
2023-01-17T17:50:21.995Z,75.25
2023-01-17T17:52:50.934Z,75.26
2023-01-17T17:55:19.138Z,75.33
2023-01-17T17:57:46.865Z,75.29
2023-01-17T18:00:14.524Z,75.38
2023-01-17T18:02:43.614Z,75.33
2023-01-17T18:05:11.730Z,75.33
2023-01-17T18:07:39.628Z,75.37
2023-01-17T18:10:08.913Z,75.35
2023-01-17T18:12:36.879Z,75.39
2023-01-17T18:15:05.550Z,75.44
2023-01-17T18:17:33.713Z,75.44
2023-01-17T18:20:01.125Z,75.46
2023-01-17T18:22:31.370Z,75.50
2023-01-17T18:24:58.781Z,75.49
2023-01-17T18:27:27.150Z,75.52
2023-01-17T18:29:56.209Z,75.46
2023-01-17T18:32:23.795Z,75.42
2023-01-17T18:34:52.195Z,75.40
2023-01-17T18:37:20.387Z,75.39
2023-01-17T18:39:48.734Z,75.45
2023-01-17T18:42:17.446Z,75.41
2023-01-17T18:44:48.127Z,75.35
2023-01-17T18:47:16.758Z,75.38
2023-01-17T18:49:45.639Z,75.41
2023-01-17T18:52:15.319Z,75.40
2023-01-17T18:54:43.377Z,75.41
2023-01-17T18:57:12.458Z,75.35
2023-01-17T18:59:41.464Z,75.37
2023-01-17T19:02:09.556Z,75.40
2023-01-17T19:04:39.203Z,75.40
2023-01-17T19:07:07.894Z,75.36
2023-01-17T19:09:36.486Z,75.37
2023-01-17T19:12:05.421Z,75.36
2023-01-17T19:14:34.186Z,75.34
2023-01-17T19:17:02.325Z,75.28
2023-01-17T19:19:30.651Z,75.24
2023-01-17T19:21:59.118Z,75.31
2023-01-17T19:24:28.229Z,75.37
2023-01-17T19:26:57.935Z,75.31
2023-01-17T19:29:27.179Z,75.30
2023-01-17T19:31:55.125Z,75.18
2023-01-17T19:34:22.832Z,75.23
2023-01-17T19:36:53.929Z,75.20
2023-01-17T19:39:25.735Z,75.36
2023-01-17T19:41:54.366Z,75.44
2023-01-17T19:44:22.219Z,75.43
2023-01-17T19:46:50.339Z,75.57
2023-01-17T19:49:24.028Z,75.65
2023-01-17T19:51:52.459Z,75.63
2023-01-17T19:54:20.763Z,75.48
2023-01-17T19:56:49.110Z,75.38
2023-01-17T19:59:17.290Z,75.39
2023-01-17T20:01:45.805Z,75.35
2023-01-17T20:04:13.663Z,75.42
2023-01-17T20:06:41.885Z,75.40
2023-01-17T20:09:10.890Z,75.38
2023-01-17T20:11:43.990Z,75.37
2023-01-17T20:14:16.858Z,75.34
2023-01-17T20:16:49.655Z,75.33
2023-01-17T20:19:17.494Z,75.30
2023-01-17T20:21:45.012Z,75.30
2023-01-17T20:24:14.212Z,75.26
2023-01-17T20:26:41.966Z,75.29
2023-01-17T20:29:15.627Z,75.31
2023-01-17T20:31:44.710Z,75.25
2023-01-17T20:34:20.167Z,75.18
2023-01-17T20:36:48.775Z,75.27
2023-01-17T20:39:20.140Z,75.28
2023-01-17T20:41:50.811Z,75.27
2023-01-17T20:44:21.907Z,75.32
2023-01-17T20:46:49.161Z,75.42
2023-01-17T20:49:19.626Z,75.40
2023-01-17T20:51:47.885Z,75.45
2023-01-17T20:54:18.624Z,75.58
2023-01-17T20:56:47.496Z,75.64
2023-01-17T20:59:18.402Z,75.69
2023-01-17T21:01:46.725Z,75.72
2023-01-17T21:04:15.054Z,75.76
2023-01-17T21:06:44.455Z,75.72
2023-01-17T21:09:14.635Z,75.73
2023-01-17T21:11:41.590Z,75.79
2023-01-17T21:14:08.948Z,75.70
2023-01-17T21:16:36.434Z,75.70
2023-01-17T21:19:03.700Z,75.71
2023-01-17T21:21:30.962Z,75.62
2023-01-17T21:23:59.685Z,75.66
2023-01-17T21:26:28.281Z,75.67
2023-01-17T21:28:56.346Z,75.65
2023-01-17T21:31:29.211Z,75.63
2023-01-17T21:33:59.137Z,75.58
2023-01-17T21:36:33.102Z,75.58
2023-01-17T21:39:05.018Z,75.67
2023-01-17T21:41:37.798Z,75.70
2023-01-17T21:44:08.921Z,75.65
2023-01-17T21:46:40.808Z,75.61
2023-01-17T21:49:12.248Z,75.66
2023-01-17T21:51:52.481Z,75.70
2023-01-17T21:54:44.981Z,75.72
2023-01-17T21:57:34.264Z,75.65
2023-01-17T22:00:01.421Z,75.64
2023-01-17T22:02:28.583Z,75.67
2023-01-17T22:04:56.612Z,75.57
2023-01-17T22:07:27.017Z,75.68
2023-01-17T22:09:54.646Z,75.67
2023-01-17T22:12:21.747Z,75.66
2023-01-17T22:14:48.860Z,75.65
2023-01-17T22:17:16.356Z,75.65
2023-01-17T22:19:43.594Z,75.67
2023-01-17T22:22:10.670Z,75.74
2023-01-17T22:24:37.438Z,75.69
2023-01-17T22:27:04.879Z,75.67
2023-01-17T22:29:34.025Z,75.73
2023-01-17T22:32:01.116Z,75.69
2023-01-17T22:34:28.324Z,75.66
2023-01-17T22:36:55.401Z,75.71
2023-01-17T22:39:22.210Z,75.84
2023-01-17T22:41:49.697Z,75.82
2023-01-17T22:44:17.105Z,75.85
2023-01-17T22:46:44.015Z,75.89
2023-01-17T22:49:13.390Z,76.00
2023-01-17T22:51:40.815Z,76.04
2023-01-17T22:54:07.916Z,76.10
2023-01-17T22:56:35.123Z,76.16
2023-01-17T22:59:02.745Z,76.18
2023-01-17T23:01:32.728Z,76.18
2023-01-17T23:04:03.727Z,76.22
2023-01-17T23:06:39.078Z,76.24
2023-01-17T23:09:12.099Z,76.28
2023-01-17T23:11:52.969Z,76.28
2023-01-17T23:14:26.025Z,76.27
2023-01-17T23:17:16.261Z,76.34
2023-01-17T23:19:43.320Z,76.34
2023-01-17T23:22:16.480Z,76.26
2023-01-17T23:24:49.570Z,76.24
2023-01-17T23:27:44.774Z,76.22
2023-01-17T23:30:17.749Z,76.19
2023-01-17T23:32:53.156Z,76.19
2023-01-17T23:35:22.097Z,76.21
2023-01-17T23:38:08.638Z,76.19
2023-01-17T23:40:37.733Z,76.38
2023-01-17T23:43:24.296Z,76.30
2023-01-17T23:45:53.381Z,76.41
2023-01-17T23:48:23.970Z,76.37
2023-01-17T23:50:51.264Z,76.41
2023-01-17T23:53:23.261Z,76.41
2023-01-17T23:55:53.116Z,76.52
2023-01-17T23:58:22.572Z,76.49
